createdAt,value
2018-09-23T00:00:09.010Z,0
2018-09-23T00:00:38.872Z,0
2018-09-23T00:01:08.716Z,0
2018-09-23T00:01:38.372Z,0
2018-09-23T00:02:07.762Z,0
2018-09-23T00:02:37.122Z,0
2018-09-23T00:03:06.688Z,0
2018-09-23T00:03:36.154Z,0
2018-09-23T00:04:05.782Z,0
2018-09-23T00:04:35.140Z,0
2018-09-23T00:05:04.634Z,0
2018-09-23T00:05:34.313Z,0
2018-09-23T00:06:03.808Z,0
2018-09-23T00:06:33.273Z,0
2018-09-23T00:07:02.957Z,0
2018-09-23T00:07:32.754Z,0
2018-09-23T00:08:02.525Z,0
2018-09-23T00:08:32.088Z,0
2018-09-23T00:09:01.380Z,0
2018-09-23T00:09:30.742Z,0
2018-09-23T00:10:00.271Z,0
2018-09-23T00:10:30.010Z,0
2018-09-23T00:10:59.716Z,0
2018-09-23T00:11:29.438Z,0
2018-09-23T00:11:59.229Z,0
2018-09-23T00:12:28.753Z,0
2018-09-23T00:12:59.453Z,0
2018-09-23T00:13:29.096Z,0
2018-09-23T00:13:58.369Z,0
2018-09-23T00:14:27.839Z,0
2018-09-23T00:14:57.580Z,0
2018-09-23T00:15:27.396Z,0
2018-09-23T00:15:56.720Z,0
2018-09-23T00:16:26.115Z,0
2018-09-23T00:16:56.513Z,0
2018-09-23T00:17:25.997Z,0
2018-09-23T00:17:55.820Z,0
2018-09-23T00:18:25.135Z,0
2018-09-23T00:18:54.485Z,0
2018-09-23T00:19:23.848Z,0
2018-09-23T00:19:54.314Z,0
2018-09-23T00:20:26.799Z,0
2018-09-23T00:20:58.751Z,0
2018-09-23T00:21:28.294Z,0
2018-09-23T00:21:57.964Z,0
2018-09-23T00:22:27.782Z,0
2018-09-23T00:22:57.229Z,0
2018-09-23T00:23:26.874Z,0
2018-09-23T00:23:57.038Z,0
2018-09-23T00:24:26.938Z,0
2018-09-23T00:24:57.227Z,0
2018-09-23T00:25:26.819Z,0
2018-09-23T00:25:56.614Z,0
2018-09-23T00:26:26.116Z,0
2018-09-23T00:26:55.617Z,0
2018-09-23T00:27:25.235Z,0
2018-09-23T00:27:54.875Z,0
2018-09-23T00:28:40.853Z,0
2018-09-23T00:29:37.291Z,0
2018-09-23T00:30:23.984Z,0
2018-09-23T00:31:17.661Z,0
2018-09-23T00:31:54.822Z,0
2018-09-23T00:32:25.341Z,0
2018-09-23T00:32:55.181Z,0
2018-09-23T00:33:25.086Z,0
2018-09-23T00:34:02.660Z,0
2018-09-23T00:34:45.384Z,0
2018-09-23T00:35:23.738Z,0
2018-09-23T00:36:05.893Z,0
2018-09-23T00:36:44.358Z,0
2018-09-23T00:37:17.367Z,0
2018-09-23T00:37:50.654Z,0
2018-09-23T00:38:32.558Z,0
2018-09-23T00:39:18.080Z,0
2018-09-23T00:40:06.876Z,0
2018-09-23T00:40:58.365Z,0
2018-09-23T00:41:30.216Z,0
2018-09-23T00:42:03.341Z,0
2018-09-23T00:42:47.132Z,0
2018-09-23T00:43:31.893Z,0
2018-09-23T00:44:08.993Z,0
2018-09-23T00:44:45.045Z,0
2018-09-23T00:45:14.989Z,0
2018-09-23T00:45:44.992Z,0
2018-09-23T00:46:15.022Z,0
2018-09-23T00:46:44.504Z,0
2018-09-23T00:47:13.991Z,0
2018-09-23T00:47:43.946Z,0
2018-09-23T00:48:13.507Z,0
2018-09-23T00:48:43.263Z,0
2018-09-23T00:49:13.073Z,0
2018-09-23T00:49:44.192Z,0
2018-09-23T00:50:13.900Z,0
2018-09-23T00:50:44.094Z,0
2018-09-23T00:51:13.811Z,0
2018-09-23T00:51:45.698Z,0
2018-09-23T00:52:16.307Z,0
2018-09-23T00:52:45.977Z,0
2018-09-23T00:53:15.858Z,0
2018-09-23T00:53:46.935Z,0
2018-09-23T00:54:16.036Z,0
2018-09-23T00:54:46.278Z,0
2018-09-23T00:55:16.222Z,0
2018-09-23T00:55:45.718Z,0
2018-09-23T00:56:15.745Z,0
2018-09-23T00:56:46.867Z,0
2018-09-23T00:57:18.092Z,0
2018-09-23T00:57:47.780Z,0
2018-09-23T00:58:17.933Z,0
2018-09-23T00:58:48.880Z,0
2018-09-23T00:59:19.563Z,0
2018-09-23T00:59:50.015Z,0
2018-09-23T01:00:19.424Z,0
2018-09-23T01:00:50.053Z,0
2018-09-23T01:01:19.503Z,0
2018-09-23T01:01:49.022Z,0
2018-09-23T01:02:18.748Z,0
2018-09-23T01:02:48.745Z,0
2018-09-23T01:03:18.346Z,0
2018-09-23T01:03:51.930Z,0
2018-09-23T01:04:25.931Z,0
2018-09-23T01:05:01.808Z,0
2018-09-23T01:05:33.488Z,0
2018-09-23T01:06:03.090Z,0
2018-09-23T01:06:33.796Z,0
2018-09-23T01:07:03.928Z,0
2018-09-23T01:07:33.646Z,0
2018-09-23T01:08:03.988Z,0
2018-09-23T01:08:34.471Z,0
2018-09-23T01:09:04.409Z,0
2018-09-23T01:09:34.344Z,0
2018-09-23T01:10:04.261Z,0
2018-09-23T01:10:34.105Z,0
2018-09-23T01:11:04.058Z,0
2018-09-23T01:11:34.076Z,0
2018-09-23T01:12:06.307Z,0
2018-09-23T01:12:36.909Z,0
2018-09-23T01:13:07.813Z,0
2018-09-23T01:13:38.536Z,0
2018-09-23T01:14:09.283Z,0
2018-09-23T01:14:40.079Z,0
2018-09-23T01:15:10.914Z,0
2018-09-23T01:15:40.841Z,0
2018-09-23T01:16:12.453Z,0
2018-09-23T01:16:43.249Z,0
2018-09-23T01:17:13.766Z,0
2018-09-23T01:17:44.321Z,0
2018-09-23T01:18:14.856Z,0
2018-09-23T01:18:44.974Z,0
2018-09-23T01:19:15.237Z,0
2018-09-23T01:19:45.609Z,0
2018-09-23T01:20:16.265Z,0
2018-09-23T01:20:46.736Z,0
2018-09-23T01:21:17.286Z,0
2018-09-23T01:21:48.021Z,0
2018-09-23T01:22:18.619Z,0
2018-09-23T01:22:50.023Z,0
2018-09-23T01:23:20.547Z,0
2018-09-23T01:23:51.210Z,0
2018-09-23T01:24:21.663Z,0
2018-09-23T01:24:52.878Z,0
2018-09-23T01:25:23.744Z,0
2018-09-23T01:25:56.604Z,0
2018-09-23T01:26:28.737Z,0
2018-09-23T01:27:03.941Z,0
2018-09-23T01:27:38.283Z,0
2018-09-23T01:28:10.365Z,0
2018-09-23T01:28:40.794Z,0
2018-09-23T01:29:11.438Z,0
2018-09-23T01:29:42.166Z,0
2018-09-23T01:30:12.447Z,0
2018-09-23T01:30:43.012Z,0
2018-09-23T01:31:15.435Z,0
2018-09-23T01:31:47.646Z,0
2018-09-23T01:32:17.978Z,0
2018-09-23T01:32:48.512Z,0
2018-09-23T01:33:19.037Z,0
2018-09-23T01:33:49.269Z,0
2018-09-23T01:34:19.621Z,0
2018-09-23T01:34:49.995Z,0
2018-09-23T01:35:20.158Z,0
2018-09-23T01:35:50.278Z,0
2018-09-23T01:36:20.427Z,0
2018-09-23T01:36:50.774Z,0
2018-09-23T01:37:21.255Z,0
2018-09-23T01:37:51.674Z,0
2018-09-23T01:38:22.190Z,0
2018-09-23T01:38:52.569Z,0
2018-09-23T01:39:22.874Z,0
2018-09-23T01:39:53.297Z,0
2018-09-23T01:40:24.145Z,0
2018-09-23T01:40:54.374Z,0
2018-09-23T01:41:24.585Z,0
2018-09-23T01:41:54.810Z,0
2018-09-23T01:42:25.306Z,0
2018-09-23T01:42:55.562Z,0
2018-09-23T01:43:25.913Z,0
2018-09-23T01:43:56.028Z,0
2018-09-23T01:44:26.349Z,0
2018-09-23T01:44:56.403Z,0
2018-09-23T01:45:26.419Z,0
2018-09-23T01:45:56.673Z,0
2018-09-23T01:46:26.953Z,0
2018-09-23T01:46:58.340Z,0
2018-09-23T01:47:28.599Z,0
2018-09-23T01:47:59.027Z,0
2018-09-23T01:48:29.446Z,0
2018-09-23T01:48:59.842Z,0
2018-09-23T01:49:30.095Z,0
2018-09-23T01:50:00.337Z,0
2018-09-23T01:50:30.443Z,0
2018-09-23T01:51:00.576Z,0
2018-09-23T01:51:30.994Z,0
2018-09-23T01:52:01.377Z,0
2018-09-23T01:52:31.808Z,0
2018-09-23T01:53:02.169Z,0
2018-09-23T01:53:32.573Z,0
2018-09-23T01:54:02.858Z,0
2018-09-23T01:54:33.137Z,0
2018-09-23T01:55:03.227Z,0
2018-09-23T01:55:33.359Z,0
2018-09-23T01:56:03.474Z,0
2018-09-23T01:56:33.550Z,0
2018-09-23T01:57:03.291Z,0
2018-09-23T01:57:32.641Z,0
2018-09-23T01:58:03.024Z,0
2018-09-23T01:58:32.316Z,0
2018-09-23T01:59:01.752Z,0
2018-09-23T01:59:31.077Z,0
2018-09-23T02:00:00.410Z,0
2018-09-23T02:00:29.715Z,0
2018-09-23T02:01:00.004Z,0
2018-09-23T02:01:29.318Z,0
2018-09-23T02:01:58.569Z,0
2018-09-23T02:02:27.866Z,0
2018-09-23T02:02:57.154Z,0
2018-09-23T02:03:26.551Z,0
2018-09-23T02:03:55.870Z,0
2018-09-23T02:04:25.136Z,0
2018-09-23T02:04:54.438Z,0
2018-09-23T02:05:23.751Z,0
2018-09-23T02:05:53.070Z,0
2018-09-23T02:06:23.425Z,0
2018-09-23T02:06:52.676Z,0
2018-09-23T02:07:22.946Z,0
2018-09-23T02:07:52.225Z,0
2018-09-23T02:08:21.601Z,0
2018-09-23T02:08:50.898Z,0
2018-09-23T02:09:20.197Z,0
2018-09-23T02:09:49.480Z,0
2018-09-23T02:10:18.827Z,0
2018-09-23T02:10:48.154Z,0
2018-09-23T02:11:17.505Z,0
2018-09-23T02:11:46.792Z,0
2018-09-23T02:12:16.106Z,0
2018-09-23T02:12:45.389Z,0
2018-09-23T02:13:14.692Z,0
2018-09-23T02:13:44.071Z,0
2018-09-23T02:14:13.379Z,0
2018-09-23T02:14:42.695Z,0
2018-09-23T02:15:12.009Z,0
2018-09-23T02:15:41.362Z,0
2018-09-23T02:16:10.629Z,0
2018-09-23T02:16:39.900Z,0
2018-09-23T02:17:09.191Z,0
2018-09-23T02:17:39.518Z,0
2018-09-23T02:18:08.802Z,0
2018-09-23T02:18:38.165Z,0
2018-09-23T02:19:07.493Z,0
2018-09-23T02:19:36.770Z,0
2018-09-23T02:20:06.084Z,0
2018-09-23T02:20:35.402Z,0
2018-09-23T02:21:04.725Z,0
2018-09-23T02:21:34.007Z,0
2018-09-23T02:22:03.323Z,0
2018-09-23T02:22:32.616Z,0
2018-09-23T02:23:02.904Z,0
2018-09-23T02:23:32.184Z,0
2018-09-23T02:24:01.526Z,0
2018-09-23T02:24:31.763Z,0
2018-09-23T02:25:01.032Z,0
2018-09-23T02:25:30.325Z,0
2018-09-23T02:25:59.607Z,0
2018-09-23T02:26:28.899Z,0
2018-09-23T02:26:58.232Z,0
2018-09-23T02:27:27.520Z,0
2018-09-23T02:27:56.800Z,0
2018-09-23T02:28:26.103Z,0
2018-09-23T02:28:55.466Z,0
2018-09-23T02:29:24.779Z,0
2018-09-23T02:29:54.080Z,0
2018-09-23T02:30:23.392Z,0
2018-09-23T02:30:52.668Z,0
2018-09-23T02:31:21.969Z,0
2018-09-23T02:31:51.250Z,0
2018-09-23T02:32:20.520Z,0
2018-09-23T02:32:49.787Z,0
2018-09-23T02:33:19.093Z,0
2018-09-23T02:33:48.435Z,0
2018-09-23T02:34:17.867Z,0
2018-09-23T02:34:47.125Z,0
2018-09-23T02:35:16.415Z,0
2018-09-23T02:35:45.699Z,0
2018-09-23T02:36:14.996Z,0
2018-09-23T02:36:44.297Z,0
2018-09-23T02:37:13.586Z,0
2018-09-23T02:37:42.849Z,0
2018-09-23T02:38:14.110Z,0
2018-09-23T02:38:43.399Z,0
2018-09-23T02:39:12.719Z,0
2018-09-23T02:39:42.058Z,0
2018-09-23T02:40:12.345Z,0
2018-09-23T02:40:41.660Z,0
2018-09-23T02:41:10.965Z,0
2018-09-23T02:41:40.277Z,0
2018-09-23T02:42:09.583Z,0
2018-09-23T02:42:38.911Z,0
2018-09-23T02:43:08.193Z,0
2018-09-23T02:43:37.527Z,0
2018-09-23T02:44:06.861Z,0
2018-09-23T02:44:36.222Z,0
2018-09-23T02:45:05.530Z,0
2018-09-23T02:45:34.789Z,0
2018-09-23T02:46:04.090Z,0
2018-09-23T02:46:33.435Z,0
2018-09-23T02:47:02.769Z,0
2018-09-23T02:47:32.069Z,0
2018-09-23T02:48:01.366Z,0
2018-09-23T02:48:30.657Z,0
2018-09-23T02:48:59.963Z,0
2018-09-23T02:49:29.323Z,0
2018-09-23T02:49:58.619Z,0
2018-09-23T02:50:27.913Z,0
2018-09-23T02:50:57.199Z,0
2018-09-23T02:51:26.444Z,0
2018-09-23T02:51:55.773Z,0
2018-09-23T02:52:25.108Z,0
2018-09-23T02:52:54.328Z,0
2018-09-23T02:53:24.582Z,0
2018-09-23T02:53:53.893Z,0
2018-09-23T02:54:23.206Z,0
2018-09-23T02:54:52.517Z,0
2018-09-23T02:55:21.796Z,0
2018-09-23T02:55:51.069Z,0
2018-09-23T02:56:20.361Z,0
2018-09-23T02:56:49.680Z,0
2018-09-23T02:57:18.937Z,0
2018-09-23T02:57:48.218Z,0
2018-09-23T02:58:17.546Z,0
2018-09-23T02:58:46.846Z,0
2018-09-23T02:59:16.132Z,0
2018-09-23T02:59:45.444Z,0
2018-09-23T03:00:14.741Z,0
2018-09-23T03:00:44.040Z,0
2018-09-23T03:01:13.341Z,0
2018-09-23T03:01:42.599Z,0
2018-09-23T03:02:12.868Z,0
2018-09-23T03:02:42.132Z,0
2018-09-23T03:03:11.415Z,0
2018-09-23T03:03:40.703Z,0
2018-09-23T03:04:10.104Z,0
2018-09-23T03:04:39.383Z,0
2018-09-23T03:05:08.753Z,0
2018-09-23T03:05:38.056Z,0
2018-09-23T03:06:07.374Z,0
2018-09-23T03:06:36.715Z,0
2018-09-23T03:07:05.995Z,0
2018-09-23T03:07:35.267Z,0
2018-09-23T03:08:04.565Z,0
2018-09-23T03:08:33.817Z,0
2018-09-23T03:09:03.082Z,0
2018-09-23T03:09:32.358Z,0
2018-09-23T03:10:01.704Z,0
2018-09-23T03:10:30.987Z,0
2018-09-23T03:11:00.284Z,0
2018-09-23T03:11:29.616Z,0
2018-09-23T03:11:58.961Z,0
2018-09-23T03:12:28.264Z,0
2018-09-23T03:12:57.596Z,0
2018-09-23T03:13:26.942Z,0
2018-09-23T03:13:56.306Z,0
2018-09-23T03:14:25.608Z,0
2018-09-23T03:14:54.912Z,0
2018-09-23T03:15:24.218Z,0
2018-09-23T03:15:53.520Z,0
2018-09-23T03:16:22.893Z,0
2018-09-23T03:16:52.320Z,0
2018-09-23T03:17:21.635Z,0
2018-09-23T03:17:50.918Z,0
2018-09-23T03:18:20.239Z,0
2018-09-23T03:18:49.560Z,0
2018-09-23T03:19:18.863Z,0
2018-09-23T03:19:48.143Z,0
2018-09-23T03:20:17.475Z,0
2018-09-23T03:20:47.732Z,0
2018-09-23T03:21:17.087Z,0
2018-09-23T03:21:46.382Z,0
2018-09-23T03:22:15.799Z,0
2018-09-23T03:22:45.083Z,0
2018-09-23T03:23:14.417Z,0
2018-09-23T03:23:43.723Z,0
2018-09-23T03:24:13.092Z,0
2018-09-23T03:24:42.460Z,0
2018-09-23T03:25:11.762Z,0
2018-09-23T03:25:41.124Z,0
2018-09-23T03:26:10.454Z,0
2018-09-23T03:26:39.820Z,0
2018-09-23T03:27:09.113Z,0
2018-09-23T03:27:38.415Z,0
2018-09-23T03:28:07.754Z,0
2018-09-23T03:28:37.065Z,0
2018-09-23T03:29:06.378Z,0
2018-09-23T03:29:35.657Z,0
2018-09-23T03:30:04.923Z,0
2018-09-23T03:30:34.329Z,0
2018-09-23T03:31:03.764Z,0
2018-09-23T03:31:34.090Z,0
2018-09-23T03:32:03.390Z,0
2018-09-23T03:32:32.737Z,0
2018-09-23T03:33:02.096Z,0
2018-09-23T03:33:31.397Z,0
2018-09-23T03:34:00.716Z,0
2018-09-23T03:34:30.043Z,0
2018-09-23T03:34:59.431Z,0
2018-09-23T03:35:28.821Z,0
2018-09-23T03:35:58.217Z,0
2018-09-23T03:36:27.499Z,0
2018-09-23T03:36:56.849Z,0
2018-09-23T03:37:26.180Z,0
2018-09-23T03:37:55.453Z,0
2018-09-23T03:38:24.751Z,0
2018-09-23T03:38:54.028Z,0
2018-09-23T03:39:23.368Z,0
2018-09-23T03:39:52.670Z,0
2018-09-23T03:40:22.007Z,0
2018-09-23T03:40:51.399Z,0
2018-09-23T03:41:20.693Z,0
2018-09-23T03:41:50.079Z,0
2018-09-23T03:42:19.429Z,0
2018-09-23T03:42:48.777Z,0
2018-09-23T03:43:18.081Z,0
2018-09-23T03:43:47.412Z,0
2018-09-23T03:44:16.784Z,0
2018-09-23T03:44:46.142Z,0
2018-09-23T03:45:15.444Z,0
2018-09-23T03:45:44.823Z,0
2018-09-23T03:46:14.210Z,0
2018-09-23T03:46:43.552Z,0
2018-09-23T03:47:12.899Z,0
2018-09-23T03:47:42.244Z,0
2018-09-23T03:48:11.554Z,0
2018-09-23T03:48:41.022Z,0
2018-09-23T03:49:10.284Z,0
2018-09-23T03:49:39.563Z,0
2018-09-23T03:50:08.828Z,0
2018-09-23T03:50:38.117Z,0
2018-09-23T03:51:07.454Z,0
2018-09-23T03:51:36.783Z,0
2018-09-23T03:52:06.100Z,0
2018-09-23T03:52:35.341Z,0
2018-09-23T03:53:04.665Z,0
2018-09-23T03:53:33.939Z,0
2018-09-23T03:54:03.233Z,0
2018-09-23T03:54:32.518Z,0
2018-09-23T03:55:01.780Z,0
2018-09-23T03:55:31.043Z,0
2018-09-23T03:56:00.338Z,0
2018-09-23T03:56:29.676Z,0
2018-09-23T03:56:58.956Z,0
2018-09-23T03:57:28.236Z,0
2018-09-23T03:57:57.533Z,0
2018-09-23T03:58:26.870Z,0
2018-09-23T03:58:56.157Z,0
2018-09-23T03:59:25.490Z,0
2018-09-23T03:59:54.799Z,0
2018-09-23T04:00:25.083Z,0
2018-09-23T04:00:54.362Z,0
2018-09-23T04:01:23.739Z,0
2018-09-23T04:01:53.020Z,0
2018-09-23T04:02:23.319Z,0
2018-09-23T04:02:52.634Z,0
2018-09-23T04:03:21.916Z,0
2018-09-23T04:03:51.181Z,0
2018-09-23T04:04:20.469Z,0
2018-09-23T04:04:49.744Z,0
2018-09-23T04:05:19.128Z,0
2018-09-23T04:05:48.457Z,0
2018-09-23T04:06:17.714Z,0
2018-09-23T04:06:47.033Z,0
2018-09-23T04:07:16.387Z,0
2018-09-23T04:07:45.670Z,0
2018-09-23T04:08:15.606Z,0
2018-09-23T04:08:45.889Z,0
2018-09-23T04:09:15.195Z,0
2018-09-23T04:09:44.692Z,0
2018-09-23T04:10:14.003Z,0
2018-09-23T04:10:43.369Z,0
2018-09-23T04:11:12.649Z,0
2018-09-23T04:11:42.077Z,0
2018-09-23T04:12:11.434Z,0
2018-09-23T04:12:40.663Z,0
2018-09-23T04:13:09.941Z,0
2018-09-23T04:13:39.263Z,0
2018-09-23T04:14:08.578Z,0
2018-09-23T04:14:37.882Z,0
2018-09-23T04:15:07.156Z,0
2018-09-23T04:15:36.509Z,0
2018-09-23T04:16:06.817Z,0
2018-09-23T04:16:36.111Z,0
2018-09-23T04:17:05.439Z,0
2018-09-23T04:17:34.719Z,0
2018-09-23T04:18:04.021Z,0
2018-09-23T04:18:33.353Z,0
2018-09-23T04:19:02.646Z,0
2018-09-23T04:19:31.991Z,0
2018-09-23T04:20:01.331Z,0
2018-09-23T04:20:30.612Z,0
2018-09-23T04:20:59.892Z,0
2018-09-23T04:21:29.189Z,0
2018-09-23T04:21:58.523Z,0
2018-09-23T04:22:27.862Z,0
2018-09-23T04:22:58.128Z,0
2018-09-23T04:23:27.438Z,0
2018-09-23T04:23:56.786Z,0
2018-09-23T04:24:26.082Z,0
2018-09-23T04:24:55.418Z,0
2018-09-23T04:25:24.794Z,0
2018-09-23T04:25:54.085Z,0
2018-09-23T04:26:23.433Z,0
2018-09-23T04:26:52.753Z,0
2018-09-23T04:27:22.097Z,0
2018-09-23T04:27:51.407Z,0
2018-09-23T04:28:20.725Z,0
2018-09-23T04:28:50.016Z,0
2018-09-23T04:29:19.349Z,0
2018-09-23T04:29:48.641Z,0
2018-09-23T04:30:17.931Z,0
2018-09-23T04:30:47.222Z,0
2018-09-23T04:31:16.535Z,0
2018-09-23T04:31:45.817Z,0
2018-09-23T04:32:15.161Z,0
2018-09-23T04:32:44.467Z,0
2018-09-23T04:33:13.751Z,0
2018-09-23T04:33:43.148Z,0
2018-09-23T04:34:12.440Z,0
2018-09-23T04:34:41.716Z,0
2018-09-23T04:35:10.991Z,0
2018-09-23T04:35:40.294Z,0
2018-09-23T04:36:09.572Z,0
2018-09-23T04:36:38.863Z,0
2018-09-23T04:37:08.198Z,0
2018-09-23T04:37:38.596Z,0
2018-09-23T04:38:07.995Z,0
2018-09-23T04:38:37.271Z,0
2018-09-23T04:39:06.563Z,0
2018-09-23T04:39:35.838Z,0
2018-09-23T04:40:05.176Z,0
2018-09-23T04:40:34.478Z,0
2018-09-23T04:41:03.756Z,0
2018-09-23T04:41:33.066Z,0
2018-09-23T04:42:02.352Z,0
2018-09-23T04:42:31.691Z,0
2018-09-23T04:43:00.992Z,0
2018-09-23T04:43:30.348Z,0
2018-09-23T04:43:59.627Z,0
2018-09-23T04:44:29.929Z,0
2018-09-23T04:44:59.255Z,0
2018-09-23T04:45:28.546Z,0
2018-09-23T04:45:57.863Z,0
2018-09-23T04:46:27.154Z,0
2018-09-23T04:46:56.406Z,0
2018-09-23T04:47:25.686Z,0
2018-09-23T04:47:55.068Z,0
2018-09-23T04:48:25.370Z,0
2018-09-23T04:48:54.679Z,0
2018-09-23T04:49:23.999Z,0
2018-09-23T04:49:53.292Z,0
2018-09-23T04:50:22.605Z,0
2018-09-23T04:50:51.897Z,0
2018-09-23T04:51:21.230Z,0
2018-09-23T04:51:50.527Z,0
2018-09-23T04:52:19.821Z,0
2018-09-23T04:52:49.202Z,0
2018-09-23T04:53:18.523Z,0
2018-09-23T04:53:47.844Z,0
2018-09-23T04:54:17.154Z,0
2018-09-23T04:54:46.437Z,0
2018-09-23T04:55:15.766Z,0
2018-09-23T04:55:45.016Z,0
2018-09-23T04:56:14.327Z,0
2018-09-23T04:56:43.649Z,0
2018-09-23T04:57:12.936Z,0
2018-09-23T04:57:42.275Z,0
2018-09-23T04:58:11.634Z,0
2018-09-23T04:58:40.976Z,0
2018-09-23T04:59:10.289Z,0
2018-09-23T04:59:39.638Z,0
2018-09-23T05:00:08.935Z,0
2018-09-23T05:00:38.210Z,0
2018-09-23T05:01:07.507Z,0
2018-09-23T05:01:36.774Z,0
2018-09-23T05:02:06.070Z,0
2018-09-23T05:02:35.391Z,0
2018-09-23T05:03:04.738Z,0
2018-09-23T05:03:34.005Z,0
2018-09-23T05:04:03.296Z,0
2018-09-23T05:04:32.550Z,0
2018-09-23T05:05:01.828Z,0
2018-09-23T05:05:31.134Z,0
2018-09-23T05:06:00.420Z,0
2018-09-23T05:06:29.737Z,0
2018-09-23T05:06:59.039Z,0
2018-09-23T05:07:28.323Z,0
2018-09-23T05:07:57.606Z,0
2018-09-23T05:08:27.935Z,0
2018-09-23T05:08:57.225Z,0
2018-09-23T05:09:26.581Z,0
2018-09-23T05:09:55.874Z,0
2018-09-23T05:10:25.158Z,0
2018-09-23T05:10:55.416Z,0
2018-09-23T05:11:24.711Z,0
2018-09-23T05:11:53.988Z,0
2018-09-23T05:12:23.241Z,0
2018-09-23T05:12:52.534Z,0
2018-09-23T05:13:21.850Z,0
2018-09-23T05:13:51.145Z,0
2018-09-23T05:14:20.440Z,0
2018-09-23T05:14:49.704Z,0
2018-09-23T05:15:18.975Z,0
2018-09-23T05:15:48.259Z,0
2018-09-23T05:16:17.536Z,0
2018-09-23T05:16:46.831Z,0
2018-09-23T05:17:16.112Z,0
2018-09-23T05:17:45.380Z,0
2018-09-23T05:18:14.752Z,0
2018-09-23T05:18:44.122Z,0
2018-09-23T05:19:13.373Z,0
2018-09-23T05:19:42.646Z,0
2018-09-23T05:20:11.939Z,0
2018-09-23T05:20:41.237Z,0
2018-09-23T05:21:10.530Z,0
2018-09-23T05:21:39.793Z,0
2018-09-23T05:22:09.099Z,0
2018-09-23T05:22:38.355Z,0
2018-09-23T05:23:07.613Z,0
2018-09-23T05:23:36.938Z,0
2018-09-23T05:24:06.238Z,0
2018-09-23T05:24:36.539Z,0
2018-09-23T05:25:05.851Z,0
2018-09-23T05:25:35.116Z,0
2018-09-23T05:26:04.422Z,0
2018-09-23T05:26:33.703Z,0
2018-09-23T05:27:03.002Z,0
2018-09-23T05:27:32.278Z,0
2018-09-23T05:28:01.559Z,0
2018-09-23T05:28:30.872Z,0
2018-09-23T05:29:00.267Z,0
2018-09-23T05:29:29.538Z,0
2018-09-23T05:29:58.854Z,0
2018-09-23T05:30:28.148Z,0
2018-09-23T05:30:57.492Z,0
2018-09-23T05:31:26.746Z,0
2018-09-23T05:31:56.047Z,0
2018-09-23T05:32:25.322Z,0
2018-09-23T05:32:54.610Z,0
2018-09-23T05:33:23.931Z,0
2018-09-23T05:33:53.273Z,0
2018-09-23T05:34:22.573Z,0
2018-09-23T05:34:51.886Z,0
2018-09-23T05:35:22.265Z,0
2018-09-23T05:35:51.502Z,0
2018-09-23T05:36:20.840Z,0
2018-09-23T05:36:50.131Z,0
2018-09-23T05:37:19.390Z,0
2018-09-23T05:37:48.674Z,0
2018-09-23T05:38:17.971Z,0
2018-09-23T05:38:47.283Z,0
2018-09-23T05:39:16.642Z,0
2018-09-23T05:39:45.884Z,0
2018-09-23T05:40:15.170Z,0
2018-09-23T05:40:44.461Z,0
2018-09-23T05:41:13.744Z,0
2018-09-23T05:41:43.041Z,0
2018-09-23T05:42:12.299Z,0
2018-09-23T05:42:41.576Z,0
2018-09-23T05:43:10.868Z,0
2018-09-23T05:43:40.146Z,0
2018-09-23T05:44:09.537Z,0
2018-09-23T05:44:38.832Z,0
2018-09-23T05:45:08.178Z,0
2018-09-23T05:45:37.484Z,0
2018-09-23T05:46:06.837Z,0
2018-09-23T05:46:36.118Z,1
2018-09-23T05:47:05.424Z,1
2018-09-23T05:47:34.753Z,0
2018-09-23T05:48:04.087Z,0
2018-09-23T05:48:33.346Z,0
2018-09-23T05:49:02.732Z,1
2018-09-23T05:49:32.162Z,1
2018-09-23T05:50:01.468Z,1
2018-09-23T05:50:30.768Z,0
2018-09-23T05:51:00.042Z,1
2018-09-23T05:51:29.417Z,1
2018-09-23T05:51:58.700Z,1
2018-09-23T05:52:28.019Z,2
2018-09-23T05:52:57.325Z,1
2018-09-23T05:53:26.617Z,1
2018-09-23T05:53:55.917Z,2
2018-09-23T05:54:25.286Z,1
2018-09-23T05:54:54.572Z,2
2018-09-23T05:55:23.875Z,2
2018-09-23T05:55:53.140Z,1
2018-09-23T05:56:22.457Z,2
2018-09-23T05:56:51.829Z,2
2018-09-23T05:57:21.218Z,2
2018-09-23T05:57:50.579Z,2
2018-09-23T05:58:19.964Z,3
2018-09-23T05:58:49.357Z,3
2018-09-23T05:59:18.746Z,3
2018-09-23T05:59:48.125Z,4
2018-09-23T06:00:17.458Z,3
2018-09-23T06:00:46.818Z,4
2018-09-23T06:01:16.082Z,4
2018-09-23T06:01:45.535Z,4
2018-09-23T06:02:14.891Z,4
2018-09-23T06:02:44.552Z,5
2018-09-23T06:03:14.076Z,5
2018-09-23T06:03:43.397Z,5
2018-09-23T06:04:12.714Z,5
2018-09-23T06:04:42.116Z,6
2018-09-23T06:05:11.519Z,6
2018-09-23T06:05:40.909Z,7
2018-09-23T06:06:10.273Z,7
2018-09-23T06:06:39.596Z,7
2018-09-23T06:07:08.949Z,8
2018-09-23T06:07:38.263Z,7
2018-09-23T06:08:07.592Z,8
2018-09-23T06:08:36.876Z,8
2018-09-23T06:09:06.207Z,8
2018-09-23T06:09:35.552Z,9
2018-09-23T06:10:04.933Z,9
2018-09-23T06:10:34.240Z,9
2018-09-23T06:11:03.573Z,11
2018-09-23T06:11:32.846Z,11
2018-09-23T06:12:02.129Z,11
2018-09-23T06:12:31.417Z,11
2018-09-23T06:13:00.689Z,12
2018-09-23T06:13:29.979Z,12
2018-09-23T06:13:59.254Z,13
2018-09-23T06:14:28.568Z,13
2018-09-23T06:14:57.955Z,13
2018-09-23T06:15:27.237Z,14
2018-09-23T06:15:56.541Z,15
2018-09-23T06:16:25.825Z,15
2018-09-23T06:16:56.110Z,15
2018-09-23T06:17:25.398Z,15
2018-09-23T06:17:54.784Z,16
2018-09-23T06:18:24.219Z,17
2018-09-23T06:18:53.474Z,17
2018-09-23T06:19:22.844Z,18
2018-09-23T06:19:52.221Z,18
2018-09-23T06:20:22.687Z,18
2018-09-23T06:20:52.018Z,19
2018-09-23T06:21:21.383Z,19
2018-09-23T06:21:50.745Z,20
2018-09-23T06:22:20.107Z,21
2018-09-23T06:22:49.454Z,21
2018-09-23T06:23:18.859Z,22
2018-09-23T06:23:48.239Z,22
2018-09-23T06:24:17.551Z,23
2018-09-23T06:24:47.944Z,23
2018-09-23T06:25:17.324Z,24
2018-09-23T06:25:46.564Z,24
2018-09-23T06:26:15.860Z,25
2018-09-23T06:26:45.137Z,25
2018-09-23T06:27:14.403Z,26
2018-09-23T06:27:43.695Z,27
2018-09-23T06:28:12.965Z,29
2018-09-23T06:28:42.248Z,32
2018-09-23T06:29:11.572Z,36
2018-09-23T06:29:41.990Z,41
2018-09-23T06:30:11.334Z,45
2018-09-23T06:30:40.708Z,49
2018-09-23T06:31:10.011Z,50
2018-09-23T06:31:39.324Z,52
2018-09-23T06:32:08.639Z,54
2018-09-23T06:32:37.912Z,55
2018-09-23T06:33:07.259Z,57
2018-09-23T06:33:36.566Z,59
2018-09-23T06:34:05.967Z,61
2018-09-23T06:34:35.258Z,63
2018-09-23T06:35:04.569Z,65
2018-09-23T06:35:33.964Z,67
2018-09-23T06:36:03.318Z,70
2018-09-23T06:36:32.624Z,72
2018-09-23T06:37:01.952Z,74
2018-09-23T06:37:31.243Z,78
2018-09-23T06:38:00.578Z,81
2018-09-23T06:38:30.146Z,83
2018-09-23T06:39:00.377Z,87
2018-09-23T06:39:29.725Z,89
2018-09-23T06:39:59.051Z,92
2018-09-23T06:40:28.317Z,95
2018-09-23T06:40:57.689Z,98
2018-09-23T06:41:27.991Z,100
2018-09-23T06:41:57.322Z,103
2018-09-23T06:42:26.611Z,106
2018-09-23T06:42:55.909Z,109
2018-09-23T06:43:25.223Z,112
2018-09-23T06:43:54.714Z,113
2018-09-23T06:44:24.038Z,117
2018-09-23T06:44:53.402Z,119
2018-09-23T06:45:22.706Z,121
2018-09-23T06:45:52.163Z,124
2018-09-23T06:46:21.367Z,126
2018-09-23T06:46:50.654Z,129
2018-09-23T06:47:19.947Z,132
2018-09-23T06:47:49.259Z,134
2018-09-23T06:48:18.535Z,137
2018-09-23T06:48:47.814Z,141
2018-09-23T06:49:17.172Z,143
2018-09-23T06:49:46.465Z,146
2018-09-23T06:50:15.787Z,148
2018-09-23T06:50:45.084Z,151
2018-09-23T06:51:14.529Z,154
2018-09-23T06:51:43.730Z,156
2018-09-23T06:52:13.025Z,158
2018-09-23T06:52:42.309Z,160
2018-09-23T06:53:11.700Z,163
2018-09-23T06:53:40.991Z,166
2018-09-23T06:54:10.320Z,169
2018-09-23T06:54:39.579Z,171
2018-09-23T06:55:08.880Z,175
2018-09-23T06:55:38.195Z,177
2018-09-23T06:56:07.571Z,179
2018-09-23T06:56:37.869Z,182
2018-09-23T06:57:07.207Z,185
2018-09-23T06:57:36.463Z,187
2018-09-23T06:58:05.823Z,191
2018-09-23T06:58:35.148Z,193
2018-09-23T06:59:04.488Z,196
2018-09-23T06:59:33.794Z,198
2018-09-23T07:00:03.108Z,201
2018-09-23T07:00:32.424Z,204
2018-09-23T07:01:01.706Z,205
2018-09-23T07:01:31.093Z,208
2018-09-23T07:02:00.779Z,210
2018-09-23T07:02:30.369Z,213
2018-09-23T07:02:59.656Z,215
2018-09-23T07:03:29.008Z,218
2018-09-23T07:03:58.353Z,220
2018-09-23T07:04:27.680Z,223
2018-09-23T07:04:56.959Z,226
2018-09-23T07:05:26.283Z,229
2018-09-23T07:05:55.608Z,231
2018-09-23T07:06:24.947Z,234
2018-09-23T07:06:54.246Z,238
2018-09-23T07:07:23.546Z,241
2018-09-23T07:07:52.841Z,243
2018-09-23T07:08:22.147Z,246
2018-09-23T07:08:51.538Z,248
2018-09-23T07:09:20.832Z,250
2018-09-23T07:09:50.159Z,252
2018-09-23T07:10:19.474Z,254
2018-09-23T07:10:48.760Z,257
2018-09-23T07:11:18.035Z,260
2018-09-23T07:11:47.364Z,263
2018-09-23T07:12:16.678Z,266
2018-09-23T07:12:46.014Z,269
2018-09-23T07:13:15.338Z,271
2018-09-23T07:13:44.643Z,274
2018-09-23T07:14:13.952Z,276
2018-09-23T07:14:43.274Z,279
2018-09-23T07:15:12.591Z,281
2018-09-23T07:15:42.052Z,283
2018-09-23T07:16:11.380Z,286
2018-09-23T07:16:40.696Z,288
2018-09-23T07:17:09.988Z,291
2018-09-23T07:17:39.272Z,293
2018-09-23T07:18:08.633Z,295